createdAt,value
2022-12-14T00:00:41.183Z,8.60
2022-12-14T00:03:00.922Z,8.07
2022-12-14T00:05:21.181Z,8.02
2022-12-14T00:07:40.912Z,6.88
2022-12-14T00:10:00.409Z,6.18
2022-12-14T00:12:19.884Z,5.00
2022-12-14T00:14:39.406Z,5.40
2022-12-14T00:17:00.095Z,5.22
2022-12-14T00:19:19.850Z,4.22
2022-12-14T00:21:39.542Z,4.80
2022-12-14T00:23:59.821Z,4.55
2022-12-14T00:26:25.805Z,5.00
2022-12-14T00:28:47.141Z,4.03
2022-12-14T00:31:07.293Z,5.32
2022-12-14T00:33:27.338Z,5.18
2022-12-14T00:35:46.977Z,7.63
2022-12-14T00:38:07.024Z,8.05
2022-12-14T00:40:27.493Z,8.85
2022-12-14T00:42:47.297Z,9.07
2022-12-14T00:45:08.077Z,10.07
2022-12-14T00:47:28.150Z,10.38
2022-12-14T00:49:48.712Z,11.60
2022-12-14T00:52:08.559Z,10.07
2022-12-14T00:54:28.170Z,10.27
2022-12-14T00:56:48.056Z,9.27
2022-12-14T00:59:08.203Z,9.10
2022-12-14T01:01:29.826Z,7.43
2022-12-14T01:03:49.842Z,7.47
2022-12-14T01:06:16.554Z,6.30
2022-12-14T01:08:36.522Z,7.53
2022-12-14T01:10:56.177Z,6.50
2022-12-14T01:13:15.734Z,6.55
2022-12-14T01:15:35.486Z,6.50
2022-12-14T01:17:55.500Z,8.85
2022-12-14T01:20:15.610Z,8.13
2022-12-14T01:22:36.068Z,8.73
2022-12-14T01:24:56.065Z,9.18
2022-12-14T01:27:15.997Z,9.30
2022-12-14T01:29:36.363Z,9.05
2022-12-14T01:31:56.478Z,9.82
2022-12-14T01:34:16.726Z,9.00
2022-12-14T01:36:38.556Z,9.07
2022-12-14T01:39:04.079Z,9.90
2022-12-14T01:41:30.419Z,9.38
2022-12-14T01:43:54.769Z,11.30
2022-12-14T01:46:24.515Z,9.38
2022-12-14T01:48:46.225Z,9.82
2022-12-14T01:51:06.293Z,8.98
2022-12-14T01:53:26.151Z,11.48
2022-12-14T01:55:51.431Z,11.45
2022-12-14T01:58:37.872Z,9.40
2022-12-14T02:01:00.075Z,10.45
2022-12-14T02:03:37.323Z,13.05
2022-12-14T02:06:01.890Z,11.48
2022-12-14T02:08:23.485Z,10.23
2022-12-14T02:10:45.582Z,10.48
2022-12-14T02:13:13.741Z,9.57
2022-12-14T02:15:35.052Z,9.50
2022-12-14T02:17:55.207Z,9.90
2022-12-14T02:20:16.139Z,10.32
2022-12-14T02:23:04.051Z,9.20
2022-12-14T02:25:49.500Z,10.00
2022-12-14T02:28:39.442Z,10.48
2022-12-14T02:31:29.147Z,9.23
2022-12-14T02:33:58.133Z,9.27
2022-12-14T02:36:54.431Z,9.82
2022-12-14T02:39:28.057Z,10.20
2022-12-14T02:42:14.611Z,10.02
2022-12-14T02:44:42.857Z,11.38
2022-12-14T02:47:10.558Z,10.98
2022-12-14T02:50:00.355Z,13.77
2022-12-14T02:52:32.524Z,14.07
2022-12-14T02:55:07.972Z,13.95
2022-12-14T02:57:54.804Z,11.45
2022-12-14T03:00:15.281Z,12.48
2022-12-14T03:02:38.509Z,13.75
2022-12-14T03:04:58.311Z,14.32
2022-12-14T03:07:32.906Z,15.70
2022-12-14T03:09:53.454Z,17.15
2022-12-14T03:12:15.022Z,16.17
2022-12-14T03:14:42.034Z,14.00
2022-12-14T03:17:19.247Z,14.35
2022-12-14T03:19:44.195Z,13.88
2022-12-14T03:22:17.954Z,15.75
2022-12-14T03:24:42.917Z,17.25
2022-12-14T03:27:24.241Z,16.98
2022-12-14T03:30:03.149Z,13.60
2022-12-14T03:32:26.356Z,13.43
2022-12-14T03:35:00.979Z,14.20
2022-12-14T03:37:36.209Z,14.18
2022-12-14T03:39:55.718Z,14.23
2022-12-14T03:42:44.356Z,13.80
2022-12-14T03:45:20.965Z,13.43
2022-12-14T03:47:58.952Z,13.50
2022-12-14T03:50:29.767Z,11.98
2022-12-14T03:53:13.630Z,11.35
2022-12-14T03:55:49.210Z,10.57
2022-12-14T03:58:22.246Z,10.20
2022-12-14T04:00:51.032Z,11.13
2022-12-14T04:03:14.044Z,11.00
2022-12-14T04:05:49.121Z,9.05
2022-12-14T04:08:41.129Z,9.60
2022-12-14T04:11:38.478Z,10.55
2022-12-14T04:14:42.007Z,10.85
2022-12-14T04:17:54.451Z,10.63
2022-12-14T04:20:27.999Z,11.07
2022-12-14T04:23:03.153Z,10.75
2022-12-14T04:25:51.019Z,10.63
2022-12-14T04:28:52.785Z,11.88
2022-12-14T04:31:19.464Z,12.93
2022-12-14T04:33:47.551Z,13.68
2022-12-14T04:36:07.989Z,12.90
2022-12-14T04:38:35.647Z,13.13
2022-12-14T04:41:03.358Z,12.98
2022-12-14T04:43:40.417Z,12.95
2022-12-14T04:46:11.482Z,13.15
2022-12-14T04:48:44.502Z,12.82
2022-12-14T04:51:13.025Z,12.70
2022-12-14T04:53:35.010Z,12.90
2022-12-14T04:56:05.241Z,13.45
2022-12-14T04:58:28.184Z,13.05
2022-12-14T05:01:00.251Z,12.52
2022-12-14T05:03:27.550Z,14.20
2022-12-14T05:06:21.894Z,13.80
2022-12-14T05:08:56.950Z,13.68
2022-12-14T05:11:50.162Z,13.02
2022-12-14T05:13:57.261Z,13.20
2022-12-14T05:16:19.215Z,12.85
2022-12-14T05:18:38.990Z,13.03
2022-12-14T05:20:58.496Z,12.23
2022-12-14T05:23:18.551Z,12.07
2022-12-14T05:25:38.207Z,11.82
2022-12-14T05:27:57.883Z,13.10
2022-12-14T05:30:17.642Z,13.27
2022-12-14T05:32:37.395Z,13.07
2022-12-14T05:34:57.403Z,12.50
2022-12-14T05:37:18.543Z,11.38
2022-12-14T05:39:38.515Z,11.95
2022-12-14T05:41:58.298Z,11.38
2022-12-14T05:44:17.942Z,12.00
2022-12-14T05:46:37.809Z,12.15
2022-12-14T05:48:57.770Z,10.68
2022-12-14T05:51:17.555Z,10.50
2022-12-14T05:53:38.694Z,10.57
2022-12-14T05:55:58.474Z,10.35
2022-12-14T05:58:18.175Z,10.88
2022-12-14T06:00:38.357Z,10.23
2022-12-14T06:02:58.616Z,9.52
2022-12-14T06:05:18.586Z,9.77
2022-12-14T06:07:39.038Z,9.80
2022-12-14T06:09:58.881Z,10.65
2022-12-14T06:12:18.564Z,9.82
2022-12-14T06:14:38.217Z,9.63
2022-12-14T06:16:57.889Z,7.95
2022-12-14T06:19:17.825Z,10.00
2022-12-14T06:21:40.799Z,8.50
2022-12-14T06:24:01.248Z,8.38
2022-12-14T06:26:22.044Z,8.55
2022-12-14T06:28:41.842Z,8.95
2022-12-14T06:31:01.964Z,9.05
2022-12-14T06:33:22.029Z,7.95
2022-12-14T06:35:45.961Z,9.48
2022-12-14T06:38:05.674Z,14.20
2022-12-14T06:40:25.433Z,10.13
2022-12-14T06:42:46.759Z,10.10
2022-12-14T06:45:06.849Z,9.32
2022-12-14T06:47:27.612Z,9.93
2022-12-14T06:49:49.138Z,8.73
2022-12-14T06:52:09.995Z,16.53
2022-12-14T06:54:29.855Z,22.85
2022-12-14T06:56:49.611Z,12.40
2022-12-14T06:59:09.665Z,10.73
2022-12-14T07:01:30.076Z,11.48
2022-12-14T07:03:52.750Z,13.68
2022-12-14T07:06:13.001Z,20.27
2022-12-14T07:08:36.086Z,11.65
2022-12-14T07:11:01.962Z,12.05
2022-12-14T07:13:22.154Z,10.55
2022-12-14T07:15:41.893Z,10.50
2022-12-14T07:18:01.971Z,12.05
2022-12-14T07:20:21.665Z,11.60
2022-12-14T07:22:41.246Z,11.80
2022-12-14T07:25:01.102Z,12.80
2022-12-14T07:27:21.096Z,11.70
2022-12-14T07:29:40.844Z,13.93
2022-12-14T07:32:00.458Z,11.32
2022-12-14T07:34:20.251Z,12.55
2022-12-14T07:36:40.220Z,12.25
2022-12-14T07:39:00.084Z,12.45
2022-12-14T07:41:23.744Z,11.40
2022-12-14T07:43:45.256Z,11.65
2022-12-14T07:46:13.681Z,10.98
2022-12-14T07:48:34.420Z,12.45
2022-12-14T07:50:54.527Z,15.90
2022-12-14T07:53:14.629Z,14.77
2022-12-14T07:55:35.439Z,15.73
2022-12-14T07:57:55.180Z,23.73
2022-12-14T08:00:16.211Z,18.73
2022-12-14T08:02:36.215Z,17.02
2022-12-14T08:04:56.058Z,24.08
2022-12-14T08:07:15.599Z,20.08
2022-12-14T08:09:35.360Z,39.63
2022-12-14T08:11:55.561Z,35.05
2022-12-14T08:14:17.092Z,19.90
2022-12-14T08:16:37.140Z,14.68
2022-12-14T08:18:58.971Z,17.85
2022-12-14T08:21:20.993Z,16.52
2022-12-14T08:23:40.897Z,20.58
2022-12-14T08:26:02.030Z,16.58
2022-12-14T08:28:23.413Z,14.27
2022-12-14T08:30:43.225Z,15.45
2022-12-14T08:33:02.963Z,11.85
2022-12-14T08:35:25.011Z,12.27
2022-12-14T08:37:47.617Z,11.35
2022-12-14T08:40:09.419Z,10.55
2022-12-14T08:42:29.689Z,7.93
2022-12-14T08:44:49.645Z,8.00
2022-12-14T08:47:09.663Z,8.23
2022-12-14T08:49:32.471Z,6.65
2022-12-14T08:51:52.636Z,8.70
2022-12-14T08:54:12.290Z,8.18
2022-12-14T08:56:32.016Z,9.63
2022-12-14T08:58:52.772Z,8.13
2022-12-14T09:01:31.775Z,8.23
2022-12-14T09:03:52.837Z,10.10
2022-12-14T09:06:15.898Z,9.88
2022-12-14T09:08:35.908Z,9.93
2022-12-14T09:10:56.188Z,10.43
2022-12-14T09:13:16.433Z,10.60
2022-12-14T09:15:36.330Z,9.02
2022-12-14T09:17:56.064Z,9.93
2022-12-14T09:20:16.478Z,9.95
2022-12-14T09:22:36.481Z,8.20
2022-12-14T09:24:56.134Z,9.23
2022-12-14T09:27:16.092Z,9.82
2022-12-14T09:29:35.882Z,9.80
2022-12-14T09:31:56.020Z,10.85
2022-12-14T09:34:16.118Z,12.43
2022-12-14T09:36:37.337Z,9.65
2022-12-14T09:38:57.758Z,10.95
2022-12-14T09:41:33.826Z,9.85
2022-12-14T09:44:18.130Z,9.18
2022-12-14T09:46:57.332Z,10.73
2022-12-14T09:49:41.698Z,10.70
2022-12-14T09:52:04.642Z,9.32
2022-12-14T09:54:28.586Z,11.60
2022-12-14T09:56:48.968Z,13.55
2022-12-14T09:59:15.661Z,15.13
2022-12-14T10:01:43.908Z,9.05
2022-12-14T10:04:29.240Z,10.23
2022-12-14T10:07:04.138Z,10.35
2022-12-14T10:09:48.151Z,10.32
2022-12-14T10:12:37.849Z,9.98
2022-12-14T10:15:16.921Z,7.95
2022-12-14T10:18:02.954Z,8.65
2022-12-14T10:20:28.325Z,9.07
2022-12-14T10:22:52.011Z,9.75
2022-12-14T10:25:26.261Z,8.57
2022-12-14T10:28:12.279Z,9.65
2022-12-14T10:30:32.288Z,9.32
2022-12-14T10:33:01.605Z,8.93
2022-12-14T10:35:42.755Z,7.82
2022-12-14T10:38:23.289Z,10.48
2022-12-14T10:40:49.547Z,13.57
2022-12-14T10:43:27.816Z,10.77
2022-12-14T10:46:14.308Z,10.52
2022-12-14T10:48:51.976Z,9.45
2022-12-14T10:51:33.967Z,12.02
2022-12-14T10:54:11.946Z,19.15
2022-12-14T10:56:34.443Z,17.23
2022-12-14T10:59:31.163Z,12.48
2022-12-14T11:02:16.659Z,11.68
2022-12-14T11:04:43.992Z,11.05
2022-12-14T11:07:09.559Z,10.90
2022-12-14T11:09:30.220Z,11.13
2022-12-14T11:12:07.947Z,11.38
2022-12-14T11:14:28.531Z,10.40
2022-12-14T11:16:48.879Z,9.95
2022-12-14T11:19:19.619Z,11.15
2022-12-14T11:21:39.837Z,10.18
2022-12-14T11:24:00.731Z,10.75
2022-12-14T11:26:34.936Z,18.60
2022-12-14T11:28:57.865Z,14.90
2022-12-14T11:31:26.012Z,18.50
2022-12-14T11:33:54.347Z,10.43
2022-12-14T11:36:30.618Z,22.65
2022-12-14T11:39:01.158Z,23.27
2022-12-14T11:41:22.180Z,16.17
2022-12-14T11:43:42.954Z,16.90
2022-12-14T11:46:02.800Z,13.73
2022-12-14T11:48:28.732Z,10.27
2022-12-14T11:50:51.516Z,16.23
2022-12-14T11:53:13.888Z,20.57
2022-12-14T11:55:38.466Z,23.65
2022-12-14T11:57:59.783Z,26.13
2022-12-14T12:00:29.613Z,28.85
2022-12-14T12:03:12.851Z,39.40
2022-12-14T12:05:38.443Z,42.40
2022-12-14T12:08:01.531Z,56.15
2022-12-14T12:10:23.785Z,49.60
2022-12-14T12:12:54.088Z,27.52
2022-12-14T12:15:41.673Z,26.92
2022-12-14T12:18:14.690Z,25.10
2022-12-14T12:21:00.005Z,24.07
2022-12-14T12:23:28.182Z,27.30
2022-12-14T12:25:51.591Z,18.05
2022-12-14T12:28:22.310Z,21.08
2022-12-14T12:30:46.715Z,26.10
2022-12-14T12:33:46.072Z,18.23
2022-12-14T12:36:05.840Z,17.05
2022-12-14T12:38:56.157Z,22.55
2022-12-14T12:42:05.607Z,16.63
2022-12-14T12:44:49.569Z,25.20
2022-12-14T12:47:41.482Z,29.58
2022-12-14T12:50:27.382Z,20.50
2022-12-14T12:52:50.854Z,25.40
2022-12-14T12:55:17.051Z,19.52
2022-12-14T12:57:44.473Z,18.88
2022-12-14T13:00:06.384Z,19.38
2022-12-14T13:02:49.986Z,19.83
2022-12-14T13:08:06.060Z,21.88
2022-12-14T13:10:30.918Z,10.57
2022-12-14T13:12:53.475Z,25.15
2022-12-14T13:15:23.311Z,21.00
2022-12-14T13:18:01.096Z,12.50
2022-12-14T13:20:26.849Z,12.15
2022-12-14T13:22:48.243Z,11.73
2022-12-14T13:25:39.565Z,9.63
2022-12-14T13:28:31.108Z,14.77
2022-12-14T13:31:06.893Z,12.60
2022-12-14T13:33:42.564Z,15.68
2022-12-14T13:36:32.954Z,10.38
2022-12-14T13:39:14.857Z,6.93
2022-12-14T13:41:50.112Z,6.30
2022-12-14T13:44:16.145Z,5.57
2022-12-14T13:46:36.571Z,4.20
2022-12-14T13:49:02.176Z,5.70
2022-12-14T13:51:50.034Z,7.38
2022-12-14T13:54:35.722Z,39.13
2022-12-14T13:57:23.263Z,79.65
2022-12-14T13:59:49.891Z,80.38
2022-12-14T14:02:28.983Z,29.38
2022-12-14T14:04:48.724Z,4.78
2022-12-14T14:07:23.456Z,5.28
2022-12-14T14:09:48.051Z,3.97
2022-12-14T14:12:43.438Z,5.32
2022-12-14T14:17:35.069Z,4.80
2022-12-14T14:19:57.246Z,6.85
2022-12-14T14:22:24.601Z,5.20
2022-12-14T14:24:58.818Z,6.63
2022-12-14T14:27:21.068Z,9.68
2022-12-14T14:29:49.398Z,11.13
2022-12-14T14:32:30.344Z,11.80
2022-12-14T14:34:51.110Z,9.85
2022-12-14T14:37:33.028Z,12.60
2022-12-14T14:40:13.534Z,12.65
2022-12-14T14:43:03.294Z,15.60
2022-12-14T14:45:36.521Z,11.02
2022-12-14T14:47:59.730Z,7.57
2022-12-14T14:50:25.163Z,7.95
2022-12-14T14:52:57.002Z,9.02
2022-12-14T14:55:52.001Z,10.85
2022-12-14T14:58:08.804Z,12.48
2022-12-14T15:00:29.748Z,20.42
2022-12-14T15:02:52.580Z,25.50
2022-12-14T15:08:02.768Z,20.88
2022-12-14T15:10:35.024Z,20.30
2022-12-14T15:13:01.478Z,21.58
2022-12-14T15:15:42.572Z,20.20
2022-12-14T15:18:19.553Z,24.48
2022-12-14T15:20:40.126Z,20.88
2022-12-14T15:22:59.915Z,23.58
2022-12-14T15:25:28.993Z,28.20
2022-12-14T15:27:49.871Z,24.50
2022-12-14T15:30:09.997Z,20.63
2022-12-14T15:32:31.058Z,20.10
2022-12-14T15:35:04.471Z,17.13
2022-12-14T15:39:45.618Z,16.98
2022-12-14T15:42:12.174Z,13.65
2022-12-14T15:44:32.091Z,12.45
2022-12-14T15:46:55.580Z,12.70
2022-12-14T15:49:21.659Z,20.15
2022-12-14T15:51:43.779Z,21.60
2022-12-14T15:54:06.476Z,24.17
2022-12-14T15:56:43.406Z,26.10
2022-12-14T15:59:16.944Z,24.92
2022-12-14T16:01:53.241Z,17.88
2022-12-14T16:04:18.858Z,17.50
2022-12-14T16:06:56.920Z,21.55
2022-12-14T16:09:27.728Z,19.58
2022-12-14T16:11:52.844Z,25.00
2022-12-14T16:14:29.466Z,27.38
2022-12-14T16:16:50.084Z,49.38
2022-12-14T16:19:27.180Z,61.25
2022-12-14T16:22:04.403Z,65.20
2022-12-14T16:24:25.127Z,38.03
2022-12-14T16:26:55.280Z,18.08
2022-12-14T16:29:25.869Z,16.67
2022-12-14T16:31:45.777Z,15.38
2022-12-14T16:34:14.976Z,10.93
2022-12-14T16:36:36.567Z,13.80
2022-12-14T16:39:03.454Z,10.18
2022-12-14T16:41:41.469Z,9.23
2022-12-14T16:44:04.007Z,12.88
2022-12-14T16:46:24.093Z,12.57
2022-12-14T16:48:50.414Z,12.85
2022-12-14T16:51:44.478Z,23.55
2022-12-14T16:54:05.850Z,27.52
2022-12-14T16:56:45.163Z,27.48
2022-12-14T16:59:18.866Z,19.42
2022-12-14T17:01:46.443Z,19.92
2022-12-14T17:04:11.786Z,25.23
2022-12-14T17:06:53.042Z,23.95
2022-12-14T17:09:24.844Z,23.30
2022-12-14T17:11:46.338Z,32.03
2022-12-14T17:14:05.828Z,19.60
2022-12-14T17:16:25.785Z,164.75
2022-12-14T17:18:46.253Z,16.45
2022-12-14T17:21:07.203Z,8.65
2022-12-14T17:23:27.684Z,8.50
2022-12-14T17:25:48.080Z,7.32
2022-12-14T17:28:30.436Z,8.45
2022-12-14T17:30:53.530Z,25.17
2022-12-14T17:35:33.055Z,11.18
2022-12-14T17:37:52.733Z,11.25
2022-12-14T17:40:12.558Z,20.15
2022-12-14T17:42:32.644Z,14.35
2022-12-14T17:44:55.830Z,9.80
2022-12-14T17:47:15.663Z,8.23
2022-12-14T17:49:35.541Z,10.07
2022-12-14T17:51:55.240Z,16.95
2022-12-14T17:54:17.880Z,37.17
2022-12-14T17:58:59.534Z,31.90
2022-12-14T18:01:24.556Z,18.85
2022-12-14T18:03:44.985Z,15.02
2022-12-14T18:06:14.566Z,18.85
2022-12-14T18:08:34.357Z,12.05
2022-12-14T18:11:00.190Z,13.15
2022-12-14T18:13:20.279Z,11.13
2022-12-14T18:15:49.941Z,9.65
2022-12-14T18:18:10.248Z,10.82
2022-12-14T18:20:30.132Z,9.27
2022-12-14T18:22:51.059Z,7.88
2022-12-14T18:25:26.421Z,11.70
2022-12-14T18:27:46.274Z,15.90
2022-12-14T18:30:08.090Z,18.38
2022-12-14T18:32:27.661Z,18.45
2022-12-14T18:34:47.240Z,26.30
2022-12-14T18:37:06.735Z,40.70
2022-12-14T18:39:26.488Z,26.35
2022-12-14T18:41:46.451Z,30.27
2022-12-14T18:44:06.332Z,17.60
2022-12-14T18:46:26.991Z,20.35
2022-12-14T18:48:47.393Z,27.27
2022-12-14T18:51:12.923Z,24.95
2022-12-14T18:53:33.151Z,191.68
2022-12-14T18:55:53.821Z,239.20
2022-12-14T18:58:17.098Z,332.10
2022-12-14T19:00:37.470Z,437.75
2022-12-14T19:02:58.564Z,140.23
2022-12-14T19:05:26.117Z,299.75
2022-12-14T19:07:46.369Z,233.32
2022-12-14T19:10:06.744Z,174.32
2022-12-14T19:12:26.281Z,364.63
2022-12-14T19:14:48.042Z,323.05
2022-12-14T19:19:35.675Z,388.40
2022-12-14T19:21:59.247Z,453.50
2022-12-14T19:24:18.723Z,510.50
2022-12-14T19:26:38.617Z,461.08
2022-12-14T19:28:59.047Z,494.83
2022-12-14T19:31:18.966Z,428.95
2022-12-14T19:33:38.612Z,187.77
2022-12-14T19:35:59.569Z,386.17
2022-12-14T19:38:19.536Z,124.15
2022-12-14T19:40:40.427Z,45.25
2022-12-14T19:43:00.409Z,362.63
2022-12-14T19:45:20.340Z,191.13
2022-12-14T19:47:40.089Z,160.07
2022-12-14T19:50:00.293Z,242.90
2022-12-14T19:52:19.901Z,289.48
2022-12-14T19:54:39.483Z,325.65
2022-12-14T19:56:59.335Z,218.32
2022-12-14T19:59:18.918Z,164.35
2022-12-14T20:01:43.332Z,171.13
2022-12-14T20:04:06.704Z,197.82
2022-12-14T20:06:27.384Z,93.00
2022-12-14T20:08:49.523Z,172.45
2022-12-14T20:11:10.646Z,138.65
2022-12-14T20:13:30.741Z,177.38
2022-12-14T20:15:58.752Z,215.23
2022-12-14T20:18:19.740Z,42.97
2022-12-14T20:20:39.744Z,72.53
2022-12-14T20:22:59.229Z,136.63
2022-12-14T20:25:19.448Z,88.50
2022-12-14T20:27:41.020Z,87.93
2022-12-14T20:30:01.380Z,65.85
2022-12-14T20:32:20.957Z,51.92
2022-12-14T20:34:41.426Z,50.45
2022-12-14T20:37:01.003Z,66.07
2022-12-14T20:39:20.732Z,24.23
2022-12-14T20:41:41.623Z,30.70
2022-12-14T20:44:01.975Z,25.77
2022-12-14T20:46:33.611Z,23.83
2022-12-14T20:48:53.229Z,26.77
2022-12-14T20:51:13.590Z,26.83
2022-12-14T20:53:33.698Z,59.00
2022-12-14T20:55:53.906Z,193.57
2022-12-14T20:58:13.471Z,23.15
2022-12-14T21:00:35.363Z,22.02
2022-12-14T21:02:55.793Z,17.00
2022-12-14T21:05:15.599Z,27.35
2022-12-14T21:07:35.164Z,90.40
2022-12-14T21:09:54.934Z,68.50
2022-12-14T21:12:20.836Z,58.05
2022-12-14T21:14:41.816Z,41.65
2022-12-14T21:17:03.188Z,40.40
2022-12-14T21:19:23.182Z,47.92
2022-12-14T21:21:49.938Z,51.28
2022-12-14T21:24:25.727Z,66.68
2022-12-14T21:26:54.057Z,33.22
2022-12-14T21:29:14.093Z,27.33
2022-12-14T21:31:34.923Z,19.27
2022-12-14T21:33:54.790Z,16.35
2022-12-14T21:36:14.507Z,19.13
2022-12-14T21:38:35.515Z,19.70
2022-12-14T21:41:14.201Z,28.73
2022-12-14T21:43:34.309Z,19.58
2022-12-14T21:45:54.049Z,21.38
2022-12-14T21:48:13.653Z,31.17
2022-12-14T21:50:33.519Z,29.85
2022-12-14T21:52:53.786Z,26.88
2022-12-14T21:55:14.092Z,22.83
2022-12-14T21:58:12.080Z,29.15
2022-12-14T22:00:32.053Z,29.33
2022-12-14T22:02:51.697Z,25.30
2022-12-14T22:05:14.309Z,34.08
2022-12-14T22:07:34.381Z,29.63
2022-12-14T22:09:54.503Z,30.13
2022-12-14T22:12:15.172Z,25.77
2022-12-14T22:14:35.606Z,20.98
2022-12-14T22:16:55.484Z,25.02
2022-12-14T22:19:21.415Z,19.55
2022-12-14T22:21:42.244Z,18.65
2022-12-14T22:24:01.939Z,18.77
2022-12-14T22:26:22.968Z,15.50
2022-12-14T22:28:42.807Z,16.20
2022-12-14T22:31:03.539Z,13.57
2022-12-14T22:33:23.247Z,14.30
2022-12-14T22:35:42.885Z,16.60
2022-12-14T22:38:02.556Z,14.07
2022-12-14T22:40:22.184Z,15.07
2022-12-14T22:42:41.948Z,12.60
2022-12-14T22:45:01.942Z,12.77
2022-12-14T22:47:22.066Z,14.65
2022-12-14T22:49:42.623Z,13.75
2022-12-14T22:52:02.715Z,12.80
2022-12-14T22:54:25.248Z,14.07
2022-12-14T22:56:58.002Z,12.85
2022-12-14T22:59:35.675Z,13.15
2022-12-14T23:01:55.942Z,12.93
2022-12-14T23:04:16.490Z,11.57
2022-12-14T23:06:36.754Z,10.90
2022-12-14T23:09:14.989Z,11.50
2022-12-14T23:11:52.988Z,11.82
2022-12-14T23:14:31.981Z,12.50
2022-12-14T23:17:10.031Z,12.07
2022-12-14T23:19:48.462Z,13.57
2022-12-14T23:22:26.310Z,12.25
2022-12-14T23:25:04.762Z,11.20
2022-12-14T23:27:42.847Z,11.95
2022-12-14T23:30:22.672Z,15.70
2022-12-14T23:33:01.001Z,13.98
2022-12-14T23:35:39.445Z,12.98
2022-12-14T23:38:23.111Z,13.02
2022-12-14T23:41:01.973Z,11.40
2022-12-14T23:43:39.945Z,11.68
2022-12-14T23:46:20.075Z,12.30
2022-12-14T23:48:58.371Z,10.55
2022-12-14T23:51:36.813Z,12.38
2022-12-14T23:54:14.715Z,12.02
2022-12-14T23:56:52.940Z,10.80
2022-12-14T23:59:32.643Z,10.88
